createdAt,value
2022-11-04T00:00:05.414Z,0.00
2022-11-04T00:01:05.490Z,0.00
2022-11-04T00:02:05.407Z,0.00
2022-11-04T00:03:05.675Z,0.00
2022-11-04T00:04:05.317Z,0.00
2022-11-04T00:05:05.317Z,0.00
2022-11-04T00:06:05.293Z,0.00
2022-11-04T00:07:05.261Z,0.00
2022-11-04T00:08:05.259Z,0.00
2022-11-04T00:09:05.247Z,0.00
2022-11-04T00:10:05.249Z,0.00
2022-11-04T00:11:05.230Z,0.00
2022-11-04T00:12:05.220Z,0.00
2022-11-04T00:13:05.436Z,0.00
2022-11-04T00:14:05.189Z,0.00
2022-11-04T00:15:05.193Z,0.00
2022-11-04T00:16:05.166Z,0.00
2022-11-04T00:17:05.155Z,0.00
2022-11-04T00:18:05.157Z,0.00
2022-11-04T00:19:05.134Z,0.00
2022-11-04T00:20:05.140Z,0.00
2022-11-04T00:21:05.111Z,0.00
2022-11-04T00:22:05.105Z,0.00
2022-11-04T00:23:05.209Z,0.00
2022-11-04T00:24:05.081Z,0.00
2022-11-04T00:25:05.090Z,0.00
2022-11-04T00:26:05.067Z,0.00
2022-11-04T00:27:05.041Z,0.00
2022-11-04T00:28:05.241Z,0.00
2022-11-04T00:29:05.018Z,0.00
2022-11-04T00:30:05.025Z,0.00
2022-11-04T00:31:04.999Z,0.00
2022-11-04T00:32:04.995Z,0.00
2022-11-04T00:33:04.976Z,0.00
2022-11-04T00:34:04.965Z,0.00
2022-11-04T00:35:04.967Z,0.00
2022-11-04T00:36:04.944Z,0.00
2022-11-04T00:37:04.938Z,0.00
2022-11-04T00:38:05.191Z,0.00
2022-11-04T00:39:04.913Z,0.00
2022-11-04T00:40:04.913Z,0.00
2022-11-04T00:41:04.886Z,0.00
2022-11-04T00:42:04.878Z,0.00
2022-11-04T00:43:04.863Z,0.00
2022-11-04T00:44:04.862Z,0.00
2022-11-04T00:45:04.856Z,0.00
2022-11-04T00:46:04.831Z,0.00
2022-11-04T00:47:04.815Z,0.00
2022-11-04T00:48:04.898Z,0.00
2022-11-04T00:49:04.792Z,0.00
2022-11-04T00:50:04.802Z,0.00
2022-11-04T00:51:04.815Z,0.00
2022-11-04T00:52:04.766Z,0.00
2022-11-04T00:53:04.919Z,0.00
2022-11-04T00:54:04.745Z,0.00
2022-11-04T00:55:04.737Z,0.00
2022-11-04T00:56:04.719Z,0.00
2022-11-04T00:57:04.710Z,0.00
2022-11-04T00:58:04.706Z,0.00
2022-11-04T00:59:04.688Z,0.00
2022-11-04T01:00:04.686Z,0.00
2022-11-04T01:01:04.724Z,0.00
2022-11-04T01:02:04.793Z,0.00
2022-11-04T01:03:04.693Z,0.00
2022-11-04T01:04:04.631Z,0.00
2022-11-04T01:05:04.639Z,0.00
2022-11-04T01:06:04.604Z,0.00
2022-11-04T01:07:04.584Z,0.00
2022-11-04T01:08:04.585Z,0.00
2022-11-04T01:09:04.576Z,0.00
2022-11-04T01:10:04.576Z,0.00
2022-11-04T01:11:04.546Z,0.00
2022-11-04T01:12:04.545Z,0.00
2022-11-04T01:13:04.522Z,0.00
2022-11-04T01:14:04.513Z,0.00
2022-11-04T01:15:04.502Z,0.00
2022-11-04T01:16:04.516Z,0.00
2022-11-04T01:17:04.488Z,0.00
2022-11-04T01:18:04.625Z,0.00
2022-11-04T01:19:04.459Z,0.00
2022-11-04T01:20:04.448Z,0.00
2022-11-04T01:21:04.462Z,0.00
2022-11-04T01:22:04.433Z,0.00
2022-11-04T01:23:04.412Z,0.00
2022-11-04T01:24:04.402Z,0.00
2022-11-04T01:25:04.391Z,0.00
2022-11-04T01:26:04.402Z,0.00
2022-11-04T01:27:04.364Z,0.00
2022-11-04T01:28:04.361Z,0.00
2022-11-04T01:29:04.346Z,0.00
2022-11-04T01:30:04.333Z,0.00
2022-11-04T01:31:04.335Z,0.00
2022-11-04T01:32:04.310Z,0.00
2022-11-04T01:33:04.294Z,0.00
2022-11-04T01:34:04.294Z,0.00
2022-11-04T01:35:04.276Z,0.00
2022-11-04T01:36:04.287Z,0.00
2022-11-04T01:37:04.252Z,0.00
2022-11-04T01:38:04.254Z,0.00
2022-11-04T01:39:04.242Z,0.00
2022-11-04T01:40:04.218Z,0.00
2022-11-04T01:41:04.219Z,0.00
2022-11-04T01:43:04.182Z,0.00
2022-11-04T01:44:04.181Z,0.00
2022-11-04T01:45:04.168Z,0.00
2022-11-04T01:46:04.172Z,0.00
2022-11-04T01:47:04.142Z,0.00
2022-11-04T01:48:04.132Z,0.00
2022-11-04T01:49:04.122Z,0.00
2022-11-04T01:50:04.105Z,0.00
2022-11-04T01:51:04.122Z,0.00
2022-11-04T01:52:04.088Z,0.00
2022-11-04T01:53:04.071Z,0.00
2022-11-04T01:54:04.062Z,0.00
2022-11-04T01:55:04.057Z,0.00
2022-11-04T01:56:04.057Z,0.00
2022-11-04T01:57:04.028Z,0.00
2022-11-04T01:58:04.022Z,0.00
2022-11-04T01:59:04.014Z,0.00
2022-11-04T02:00:03.997Z,0.00
2022-11-04T02:01:04.041Z,0.00
2022-11-04T02:02:04.203Z,0.00
2022-11-04T02:03:03.943Z,0.00
2022-11-04T02:04:03.953Z,0.00
2022-11-04T02:05:03.934Z,0.00
2022-11-04T02:06:03.953Z,0.00
2022-11-04T02:07:03.921Z,0.00
2022-11-04T02:08:03.902Z,0.00
2022-11-04T02:09:03.917Z,0.00
2022-11-04T02:10:03.897Z,0.00
2022-11-04T02:11:03.888Z,0.00
2022-11-04T02:12:03.858Z,0.00
2022-11-04T02:13:03.842Z,0.00
2022-11-04T02:14:03.839Z,0.00
2022-11-04T02:15:03.821Z,0.00
2022-11-04T02:16:03.833Z,0.00
2022-11-04T02:17:03.804Z,0.00
2022-11-04T02:18:03.794Z,0.00
2022-11-04T02:19:03.777Z,0.00
2022-11-04T02:20:03.864Z,0.00
2022-11-04T02:21:03.773Z,0.00
2022-11-04T02:22:03.749Z,0.00
2022-11-04T02:23:03.743Z,0.00
2022-11-04T02:24:03.729Z,0.00
2022-11-04T02:25:03.708Z,0.00
2022-11-04T02:26:03.736Z,0.00
2022-11-04T02:27:03.692Z,0.00
2022-11-04T02:28:03.683Z,0.00
2022-11-04T02:29:03.668Z,0.00
2022-11-04T02:30:03.697Z,0.00
2022-11-04T02:31:03.658Z,0.00
2022-11-04T02:32:03.638Z,0.00
2022-11-04T02:33:03.627Z,0.00
2022-11-04T02:34:03.611Z,0.00
2022-11-04T02:35:03.593Z,0.00
2022-11-04T02:36:03.605Z,0.00
2022-11-04T02:37:03.578Z,0.00
2022-11-04T02:38:03.571Z,0.00
2022-11-04T02:39:03.548Z,0.00
2022-11-04T02:40:03.594Z,0.00
2022-11-04T02:41:03.539Z,0.00
2022-11-04T02:42:03.519Z,0.00
2022-11-04T02:43:03.513Z,0.00
2022-11-04T02:44:03.498Z,0.00
2022-11-04T02:45:03.481Z,0.00
2022-11-04T02:46:03.492Z,0.00
2022-11-04T02:47:03.454Z,0.00
2022-11-04T02:48:03.454Z,0.00
2022-11-04T02:49:03.431Z,0.00
2022-11-04T02:50:03.430Z,0.00
2022-11-04T02:51:03.432Z,0.00
2022-11-04T02:52:03.407Z,0.00
2022-11-04T02:53:03.393Z,0.00
2022-11-04T02:54:03.384Z,0.00
2022-11-04T02:55:03.452Z,0.00
2022-11-04T02:56:03.374Z,0.00
2022-11-04T02:57:03.338Z,0.00
2022-11-04T02:58:03.334Z,0.00
2022-11-04T02:59:03.333Z,0.00
2022-11-04T03:00:03.362Z,0.00
2022-11-04T03:01:03.430Z,0.00
2022-11-04T03:02:03.495Z,0.00
2022-11-04T03:03:03.280Z,0.00
2022-11-04T03:04:03.279Z,0.00
2022-11-04T03:05:03.325Z,0.00
2022-11-04T03:06:03.265Z,0.00
2022-11-04T03:07:03.279Z,0.00
2022-11-04T03:08:03.225Z,0.00
2022-11-04T03:09:03.217Z,0.00
2022-11-04T03:10:03.201Z,0.00
2022-11-04T03:11:03.198Z,0.00
2022-11-04T03:12:03.181Z,0.00
2022-11-04T03:13:03.165Z,0.00
2022-11-04T03:14:03.169Z,0.00
2022-11-04T03:15:03.141Z,0.00
2022-11-04T03:16:03.151Z,0.00
2022-11-04T03:17:03.116Z,0.00
2022-11-04T03:18:03.106Z,0.00
2022-11-04T03:19:03.085Z,0.00
2022-11-04T03:20:03.084Z,0.00
2022-11-04T03:21:03.103Z,0.00
2022-11-04T03:22:03.065Z,0.00
2022-11-04T03:23:03.058Z,0.00
2022-11-04T03:24:03.051Z,0.00
2022-11-04T03:25:03.090Z,0.00
2022-11-04T03:26:03.040Z,0.00
2022-11-04T03:27:03.002Z,0.00
2022-11-04T03:28:03.000Z,0.00
2022-11-04T03:29:02.987Z,0.00
2022-11-04T03:30:03.108Z,0.00
2022-11-04T03:31:02.978Z,0.00
2022-11-04T03:32:02.953Z,0.00
2022-11-04T03:33:02.930Z,0.00
2022-11-04T03:34:02.932Z,0.00
2022-11-04T03:35:02.921Z,0.00
2022-11-04T03:36:02.935Z,0.00
2022-11-04T03:37:02.888Z,0.00
2022-11-04T03:38:02.883Z,0.00
2022-11-04T03:39:02.862Z,0.00
2022-11-04T03:40:02.860Z,0.00
2022-11-04T03:41:02.869Z,0.00
2022-11-04T03:42:02.844Z,0.00
2022-11-04T03:43:02.817Z,0.00
2022-11-04T03:44:02.825Z,0.00
2022-11-04T03:45:02.805Z,0.00
2022-11-04T03:46:02.813Z,0.00
2022-11-04T03:47:02.783Z,0.00
2022-11-04T03:48:02.765Z,0.00
2022-11-04T03:49:02.759Z,0.00
2022-11-04T03:50:02.752Z,0.00
2022-11-04T03:51:02.751Z,0.00
2022-11-04T03:52:02.731Z,0.00
2022-11-04T03:53:02.715Z,0.00
2022-11-04T03:54:02.715Z,0.00
2022-11-04T03:55:02.690Z,0.00
2022-11-04T03:56:02.698Z,0.00
2022-11-04T03:57:02.668Z,0.00
2022-11-04T03:58:02.658Z,0.00
2022-11-04T03:59:02.644Z,0.00
2022-11-04T04:00:02.636Z,0.00
2022-11-04T04:01:02.662Z,0.00
2022-11-04T04:02:02.704Z,0.00
2022-11-04T04:03:02.596Z,0.00
2022-11-04T04:04:02.596Z,0.00
2022-11-04T04:05:02.585Z,0.00
2022-11-04T04:06:02.569Z,0.00
2022-11-04T04:07:02.570Z,0.00
2022-11-04T04:08:02.543Z,0.00
2022-11-04T04:09:02.527Z,0.00
2022-11-04T04:10:02.527Z,0.00
2022-11-04T04:11:02.508Z,0.00
2022-11-04T04:12:02.513Z,0.00
2022-11-04T04:13:02.479Z,0.00
2022-11-04T04:14:02.479Z,0.00
2022-11-04T04:15:02.463Z,0.00
2022-11-04T04:16:02.450Z,0.00
2022-11-04T04:17:02.514Z,0.00
2022-11-04T04:18:02.436Z,0.00
2022-11-04T04:19:02.415Z,0.00
2022-11-04T04:20:02.411Z,0.00
2022-11-04T04:21:02.391Z,0.00
2022-11-04T04:22:02.405Z,0.00
2022-11-04T04:23:02.377Z,0.00
2022-11-04T04:24:02.369Z,0.00
2022-11-04T04:25:02.343Z,0.00
2022-11-04T04:26:02.343Z,0.00
2022-11-04T04:27:02.341Z,0.00
2022-11-04T04:28:02.320Z,0.00
2022-11-04T04:29:02.301Z,0.00
2022-11-04T04:30:02.426Z,0.00
2022-11-04T04:31:02.287Z,0.00
2022-11-04T04:32:02.292Z,0.00
2022-11-04T04:33:02.259Z,0.00
2022-11-04T04:34:02.256Z,0.00
2022-11-04T04:35:02.243Z,0.00
2022-11-04T04:36:02.233Z,0.00
2022-11-04T04:37:02.227Z,0.00
2022-11-04T04:38:02.204Z,0.00
2022-11-04T04:39:02.198Z,0.00
2022-11-04T04:40:02.205Z,0.00
2022-11-04T04:41:02.174Z,0.00
2022-11-04T04:42:02.186Z,0.00
2022-11-04T04:43:02.151Z,0.00
2022-11-04T04:44:02.144Z,0.00
2022-11-04T04:45:02.127Z,0.00
2022-11-04T04:46:02.122Z,0.00
2022-11-04T04:47:02.124Z,0.00
2022-11-04T04:48:02.094Z,0.00
2022-11-04T04:49:02.080Z,0.00
2022-11-04T04:50:02.104Z,0.00
2022-11-04T04:51:02.062Z,0.00
2022-11-04T04:52:02.075Z,0.00
2022-11-04T04:53:02.030Z,0.00
2022-11-04T04:54:02.028Z,0.00
2022-11-04T04:55:02.021Z,0.00
2022-11-04T04:56:02.018Z,0.00
2022-11-04T04:57:02.008Z,0.00
2022-11-04T04:58:01.986Z,0.00
2022-11-04T04:59:01.969Z,0.00
2022-11-04T05:00:01.968Z,0.00
2022-11-04T05:01:02.043Z,0.00
2022-11-04T05:02:02.033Z,0.00
2022-11-04T05:03:01.929Z,0.00
2022-11-04T05:04:01.910Z,0.00
2022-11-04T05:05:01.989Z,0.00
2022-11-04T05:06:01.901Z,0.00
2022-11-04T05:07:01.905Z,0.00
2022-11-04T05:08:01.864Z,0.00
2022-11-04T05:09:01.854Z,0.00
2022-11-04T05:10:01.848Z,0.00
2022-11-04T05:11:01.836Z,0.00
2022-11-04T05:12:01.843Z,0.00
2022-11-04T05:13:01.810Z,0.00
2022-11-04T05:14:01.808Z,0.00
2022-11-04T05:15:01.792Z,0.00
2022-11-04T05:16:01.777Z,0.00
2022-11-04T05:17:01.781Z,0.00
2022-11-04T05:18:01.763Z,0.00
2022-11-04T05:19:01.743Z,0.00
2022-11-04T05:20:01.736Z,0.00
2022-11-04T05:21:01.719Z,0.00
2022-11-04T05:22:01.728Z,0.00
2022-11-04T05:23:01.698Z,0.00
2022-11-04T05:24:01.694Z,0.00
2022-11-04T05:25:01.678Z,0.00
2022-11-04T05:26:01.667Z,0.00
2022-11-04T05:27:01.661Z,0.00
2022-11-04T05:28:01.660Z,0.00
2022-11-04T05:29:01.661Z,0.00
2022-11-04T05:30:01.629Z,0.00
2022-11-04T05:31:01.618Z,0.00
2022-11-04T05:32:01.618Z,0.00
2022-11-04T05:33:04.785Z,0.00
2022-11-04T05:34:01.566Z,0.00
2022-11-04T05:35:01.568Z,0.00
2022-11-04T05:36:01.553Z,0.00
2022-11-04T05:37:01.551Z,0.00
2022-11-04T05:38:01.534Z,0.00
2022-11-04T05:39:01.517Z,0.00
2022-11-04T05:40:01.514Z,0.00
2022-11-04T05:41:01.489Z,0.00
2022-11-04T05:42:01.496Z,0.00
2022-11-04T05:43:01.462Z,0.00
2022-11-04T05:44:01.461Z,0.00
2022-11-04T05:45:01.453Z,0.00
2022-11-04T05:46:01.441Z,0.00
2022-11-04T05:47:01.434Z,0.00
2022-11-04T05:48:01.422Z,0.00
2022-11-04T05:49:01.398Z,0.00
2022-11-04T05:50:01.388Z,0.00
2022-11-04T05:51:01.390Z,0.00
2022-11-04T05:52:01.391Z,0.00
2022-11-04T05:53:01.354Z,0.00
2022-11-04T05:54:01.342Z,0.00
2022-11-04T05:55:01.332Z,0.00
2022-11-04T05:56:01.326Z,0.00
2022-11-04T05:57:01.326Z,0.00
2022-11-04T05:58:01.301Z,0.00
2022-11-04T05:59:01.288Z,0.00
2022-11-04T06:00:01.311Z,0.00
2022-11-04T06:01:01.267Z,0.00
2022-11-04T06:02:01.477Z,4.00
2022-11-04T06:03:01.306Z,4.00
2022-11-04T06:04:01.230Z,4.00
2022-11-04T06:05:01.221Z,0.00
2022-11-04T06:06:01.213Z,4.00
2022-11-04T06:07:01.214Z,4.00
2022-11-04T06:08:01.192Z,8.00
2022-11-04T06:09:01.173Z,8.00
2022-11-04T06:10:01.160Z,4.00
2022-11-04T06:11:01.156Z,8.00
2022-11-04T06:12:01.155Z,12.00
2022-11-04T06:13:01.125Z,12.00
2022-11-04T06:14:01.126Z,12.00
2022-11-04T06:15:01.108Z,12.00
2022-11-04T06:16:01.098Z,8.00
2022-11-04T06:17:01.128Z,12.00
2022-11-04T06:18:01.076Z,12.00
2022-11-04T06:19:05.849Z,12.00
2022-11-04T06:20:01.055Z,12.00
2022-11-04T06:21:01.032Z,16.00
2022-11-04T06:22:01.053Z,16.00
2022-11-04T06:23:01.010Z,16.00
2022-11-04T06:24:01.009Z,20.00
2022-11-04T06:25:00.996Z,12.00
2022-11-04T06:26:00.982Z,20.00
2022-11-04T06:27:00.982Z,24.00
2022-11-04T06:28:00.962Z,28.00
2022-11-04T06:29:00.948Z,32.00
2022-11-04T06:30:00.942Z,36.00
2022-11-04T06:31:00.922Z,32.00
2022-11-04T06:32:00.926Z,36.00
2022-11-04T06:33:00.897Z,44.00
2022-11-04T06:34:00.898Z,40.00
2022-11-04T06:35:00.874Z,32.00
2022-11-04T06:36:00.872Z,40.00
2022-11-04T06:37:00.868Z,56.00
2022-11-04T06:38:00.839Z,72.00
2022-11-04T06:39:04.623Z,88.00
2022-11-04T06:40:00.816Z,128.00
2022-11-04T06:41:00.905Z,152.00
2022-11-04T06:42:02.494Z,160.00
2022-11-04T06:43:00.783Z,192.00
2022-11-04T06:44:00.777Z,228.00
2022-11-04T06:45:00.761Z,240.00
2022-11-04T06:46:00.757Z,256.00
2022-11-04T06:47:00.754Z,268.00
2022-11-04T06:48:00.735Z,280.00
2022-11-04T06:49:00.709Z,292.00
2022-11-04T06:50:00.711Z,296.00
2022-11-04T06:51:00.740Z,308.00
2022-11-04T06:52:00.701Z,316.00
2022-11-04T06:53:00.672Z,324.00
2022-11-04T06:54:00.661Z,332.00
2022-11-04T06:55:00.646Z,340.00
2022-11-04T06:56:00.642Z,352.00
2022-11-04T06:57:00.636Z,372.00
2022-11-04T06:58:00.621Z,392.00
2022-11-04T06:59:00.606Z,412.00
2022-11-04T07:00:00.593Z,440.00
2022-11-04T07:01:00.605Z,476.00
2022-11-04T07:02:00.762Z,504.00
2022-11-04T07:03:00.561Z,524.00
2022-11-04T07:04:00.551Z,552.00
2022-11-04T07:05:00.545Z,576.00
2022-11-04T07:06:00.530Z,584.00
2022-11-04T07:07:00.515Z,580.00
2022-11-04T07:08:00.512Z,580.00
2022-11-04T07:09:00.488Z,584.00
2022-11-04T07:10:00.476Z,596.00
2022-11-04T07:11:00.467Z,616.00
2022-11-04T07:12:00.470Z,648.00
2022-11-04T07:13:00.469Z,708.00
2022-11-04T07:14:00.443Z,776.00
2022-11-04T07:15:00.423Z,860.00
2022-11-04T07:16:00.482Z,948.00
2022-11-04T07:17:00.403Z,1052.00
2022-11-04T07:18:00.400Z,1100.00
2022-11-04T07:19:00.371Z,1044.00
2022-11-04T07:20:00.371Z,904.00
2022-11-04T07:21:01.760Z,856.00
2022-11-04T07:22:00.337Z,772.00
2022-11-04T07:23:00.341Z,716.00
2022-11-04T07:24:00.322Z,668.00
2022-11-04T07:25:00.300Z,644.00
2022-11-04T07:26:00.293Z,632.00
2022-11-04T07:28:02.376Z,636.00
2022-11-04T07:29:00.258Z,644.00
2022-11-04T07:30:00.253Z,652.00
2022-11-04T07:31:02.095Z,664.00
2022-11-04T07:32:00.233Z,672.00
2022-11-04T07:33:00.238Z,680.00
2022-11-04T07:34:00.212Z,684.00
2022-11-04T07:35:00.198Z,688.00
2022-11-04T07:36:00.196Z,692.00
2022-11-04T07:37:00.175Z,696.00
2022-11-04T07:38:00.170Z,716.00
2022-11-04T07:39:00.152Z,740.00
2022-11-04T07:40:00.160Z,780.00
2022-11-04T07:41:00.127Z,824.00
2022-11-04T07:42:00.121Z,888.00
2022-11-04T07:43:00.127Z,968.00
2022-11-04T07:44:00.089Z,1044.00
2022-11-04T07:45:00.089Z,1116.00
2022-11-04T07:46:00.081Z,1184.00
2022-11-04T07:47:00.062Z,1232.00
2022-11-04T07:48:00.064Z,1292.00
2022-11-04T07:49:00.040Z,1364.00
2022-11-04T07:50:00.115Z,1440.00
2022-11-04T07:51:00.007Z,1516.00
2022-11-04T07:52:00.012Z,1588.00
2022-11-04T07:53:00.010Z,1604.00
2022-11-04T07:53:59.986Z,1580.00
2022-11-04T07:54:59.970Z,1552.00
2022-11-04T07:55:59.951Z,1520.00
2022-11-04T07:56:59.944Z,1508.00
2022-11-04T07:57:59.941Z,1504.00
2022-11-04T07:58:59.918Z,1516.00
2022-11-04T07:59:59.916Z,1528.00
2022-11-04T08:00:59.890Z,1560.00
2022-11-04T08:02:00.018Z,1620.00
2022-11-04T08:02:59.940Z,1716.00
2022-11-04T08:03:59.862Z,1872.00
2022-11-04T08:04:59.848Z,2096.00
2022-11-04T08:05:59.850Z,2324.00
2022-11-04T08:06:59.831Z,2492.00
2022-11-04T08:07:59.852Z,2484.00
2022-11-04T08:08:59.845Z,2264.00
2022-11-04T08:09:59.797Z,2068.00
2022-11-04T08:10:59.784Z,2144.00
2022-11-04T08:11:59.771Z,2060.00
2022-11-04T08:12:59.787Z,2092.00
2022-11-04T08:13:59.754Z,2084.00
2022-11-04T08:14:59.735Z,2128.00
2022-11-04T08:15:59.731Z,2152.00
2022-11-04T08:16:59.713Z,2332.00
2022-11-04T08:17:59.734Z,2592.00
2022-11-04T08:18:59.697Z,2568.00
2022-11-04T08:19:59.681Z,2168.00
2022-11-04T08:20:59.672Z,1996.00
2022-11-04T08:21:59.663Z,2608.00
2022-11-04T08:22:59.666Z,2588.00
2022-11-04T08:23:59.638Z,2368.00
2022-11-04T08:24:59.629Z,2208.00
2022-11-04T08:25:59.616Z,2064.00
2022-11-04T08:26:59.601Z,1932.00
2022-11-04T08:28:01.094Z,1856.00
2022-11-04T08:28:59.582Z,1856.00
2022-11-04T08:29:59.576Z,1956.00
2022-11-04T08:30:59.558Z,2036.00
2022-11-04T08:31:59.548Z,2128.00
2022-11-04T08:32:59.548Z,2256.00
2022-11-04T08:33:59.525Z,2292.00
2022-11-04T08:34:59.536Z,2196.00
2022-11-04T08:35:59.496Z,2180.00
2022-11-04T08:36:59.500Z,2188.00
2022-11-04T08:37:59.501Z,2180.00
2022-11-04T08:38:59.470Z,2252.00
2022-11-04T08:39:59.454Z,2364.00
2022-11-04T08:41:00.304Z,2448.00
2022-11-04T08:41:59.432Z,2536.00
2022-11-04T08:42:59.431Z,2560.00
2022-11-04T08:43:59.416Z,2528.00
2022-11-04T08:44:59.393Z,2480.00
2022-11-04T08:45:59.386Z,2428.00
2022-11-04T08:46:59.382Z,2356.00
2022-11-04T08:48:05.159Z,2288.00
2022-11-04T08:48:59.355Z,2248.00
2022-11-04T08:49:59.341Z,2224.00
2022-11-04T08:50:59.322Z,2232.00
2022-11-04T08:51:59.332Z,2236.00
2022-11-04T08:52:59.325Z,2248.00
2022-11-04T08:53:59.305Z,2316.00
2022-11-04T08:54:59.297Z,2380.00
2022-11-04T08:55:59.274Z,2448.00
2022-11-04T08:56:59.254Z,2536.00
2022-11-04T08:57:59.272Z,2616.00
2022-11-04T08:58:59.249Z,2704.00
2022-11-04T08:59:59.235Z,2776.00
2022-11-04T09:00:59.225Z,2824.00
2022-11-04T09:01:59.297Z,2836.00
2022-11-04T09:02:59.209Z,2784.00
2022-11-04T09:03:59.265Z,2668.00
2022-11-04T09:04:59.179Z,2544.00
2022-11-04T09:05:59.167Z,2500.00
2022-11-04T09:06:59.333Z,2576.00
2022-11-04T09:07:59.158Z,2648.00
2022-11-04T09:08:59.142Z,2656.00
2022-11-04T09:09:59.119Z,2632.00
2022-11-04T09:10:59.102Z,2592.00
2022-11-04T09:11:59.102Z,2588.00
2022-11-04T09:12:59.097Z,2616.00
2022-11-04T09:13:59.088Z,2584.00
2022-11-04T09:14:59.061Z,2528.00
2022-11-04T09:15:59.056Z,2468.00
2022-11-04T09:16:59.038Z,2376.00
2022-11-04T09:17:59.048Z,2380.00
2022-11-04T09:18:59.018Z,2252.00
2022-11-04T09:19:59.017Z,2084.00
2022-11-04T09:20:58.999Z,2088.00
2022-11-04T09:21:58.991Z,2136.00
2022-11-04T09:22:58.992Z,2204.00
2022-11-04T09:23:58.985Z,2152.00
2022-11-04T09:24:58.954Z,2084.00
2022-11-04T09:25:58.951Z,2040.00
2022-11-04T09:26:58.936Z,1968.00
2022-11-04T09:27:58.942Z,2016.00
2022-11-04T09:28:58.911Z,1944.00
2022-11-04T09:29:58.903Z,1892.00
2022-11-04T09:30:58.887Z,1776.00
2022-11-04T09:31:58.884Z,1732.00
2022-11-04T09:32:58.890Z,1748.00
2022-11-04T09:33:58.863Z,1780.00
2022-11-04T09:34:58.852Z,1776.00
2022-11-04T09:35:58.836Z,1784.00
2022-11-04T09:36:58.835Z,1768.00
2022-11-04T09:37:58.907Z,1944.00
2022-11-04T09:38:58.806Z,2216.00
2022-11-04T09:39:58.819Z,2232.00
2022-11-04T09:40:58.781Z,2296.00
2022-11-04T09:41:58.767Z,2308.00
2022-11-04T09:42:58.771Z,2388.00
2022-11-04T09:43:58.751Z,2480.00
2022-11-04T09:45:58.736Z,2708.00
2022-11-04T09:46:58.706Z,2864.00
2022-11-04T09:47:58.725Z,2844.00
2022-11-04T09:48:58.689Z,2832.00
2022-11-04T09:49:58.680Z,2936.00
2022-11-04T09:50:58.660Z,2768.00
2022-11-04T09:51:58.661Z,2668.00
2022-11-04T09:52:58.648Z,2588.00
2022-11-04T09:53:58.644Z,2496.00
2022-11-04T09:54:58.617Z,2392.00
2022-11-04T09:55:58.607Z,2320.00
2022-11-04T09:56:58.595Z,2212.00
2022-11-04T09:57:58.731Z,2120.00
2022-11-04T09:58:58.574Z,2004.00
2022-11-04T09:59:58.575Z,1900.00
2022-11-04T10:00:58.615Z,1836.00
2022-11-04T10:01:58.659Z,1744.00
2022-11-04T10:02:58.547Z,1656.00
2022-11-04T10:03:58.531Z,1664.00
2022-11-04T10:04:58.511Z,1612.00
2022-11-04T10:05:58.495Z,1608.00
2022-11-04T10:06:58.489Z,1580.00
2022-11-04T10:07:58.496Z,1520.00
2022-11-04T10:08:58.465Z,1540.00
2022-11-04T10:09:58.459Z,1652.00
2022-11-04T10:10:58.442Z,1976.00
2022-11-04T10:11:58.436Z,1932.00
2022-11-04T10:12:58.440Z,1864.00
2022-11-04T10:13:58.418Z,1912.00
2022-11-04T10:14:58.399Z,1748.00
2022-11-04T10:15:58.404Z,1604.00
2022-11-04T10:16:58.380Z,1556.00
2022-11-04T10:17:58.390Z,1792.00
2022-11-04T10:18:58.354Z,2040.00
2022-11-04T10:19:58.348Z,1904.00
2022-11-04T10:20:58.335Z,1832.00
2022-11-04T10:21:58.329Z,1740.00
2022-11-04T10:22:58.326Z,1872.00
2022-11-04T10:23:58.303Z,2128.00
2022-11-04T10:24:58.418Z,2252.00
2022-11-04T10:25:58.281Z,1964.00
2022-11-04T10:27:00.610Z,1904.00
2022-11-04T10:27:58.281Z,1900.00
2022-11-04T10:28:58.237Z,1896.00
2022-11-04T10:29:58.238Z,1984.00
2022-11-04T10:30:58.223Z,2076.00
2022-11-04T10:31:58.221Z,2060.00
2022-11-04T10:32:58.223Z,2180.00
2022-11-04T10:33:58.194Z,2212.00
2022-11-04T10:34:58.188Z,2196.00
2022-11-04T10:35:58.167Z,2172.00
2022-11-04T10:36:58.156Z,2204.00
2022-11-04T10:37:58.161Z,2380.00
2022-11-04T10:38:58.134Z,2624.00
2022-11-04T10:39:58.131Z,2432.00
2022-11-04T10:41:01.630Z,2432.00
2022-11-04T10:41:58.117Z,2200.00
2022-11-04T10:42:58.105Z,1968.00
2022-11-04T10:43:58.085Z,1864.00
2022-11-04T10:44:58.068Z,2008.00
2022-11-04T10:45:58.075Z,1960.00
2022-11-04T10:46:58.046Z,2000.00
2022-11-04T10:47:58.052Z,1844.00
2022-11-04T10:48:58.026Z,1896.00
2022-11-04T10:50:27.103Z,2000.00
2022-11-04T10:50:58.005Z,1936.00
2022-11-04T10:51:57.994Z,2076.00
2022-11-04T10:52:57.994Z,1912.00
2022-11-04T10:53:58.031Z,1896.00
2022-11-04T10:54:57.962Z,2004.00
2022-11-04T10:55:57.973Z,1904.00
2022-11-04T10:56:57.973Z,2108.00
2022-11-04T10:57:57.945Z,2120.00
2022-11-04T10:58:57.914Z,2196.00
2022-11-04T10:59:57.903Z,2144.00
2022-11-04T11:00:57.991Z,2132.00
2022-11-04T11:01:58.025Z,2032.00
2022-11-04T11:02:57.883Z,1932.00
2022-11-04T11:03:57.862Z,1904.00
2022-11-04T11:04:57.843Z,1852.00
2022-11-04T11:05:57.838Z,1768.00
2022-11-04T11:06:57.822Z,1744.00
2022-11-04T11:07:57.833Z,1888.00
2022-11-04T11:08:57.796Z,1880.00
2022-11-04T11:09:57.796Z,1928.00
2022-11-04T11:10:57.774Z,2080.00
2022-11-04T11:11:57.764Z,2152.00
2022-11-04T11:12:57.776Z,2440.00
2022-11-04T11:13:57.747Z,2804.00
2022-11-04T11:14:57.737Z,2716.00
2022-11-04T11:15:57.730Z,2628.00
2022-11-04T11:16:57.719Z,1836.00
2022-11-04T11:17:57.727Z,1640.00
2022-11-04T11:18:57.692Z,1616.00
2022-11-04T11:19:57.685Z,1592.00
2022-11-04T11:20:57.691Z,1592.00
2022-11-04T11:21:57.658Z,1620.00
2022-11-04T11:23:03.520Z,1596.00
2022-11-04T11:23:57.642Z,1672.00
2022-11-04T11:24:57.623Z,1636.00
2022-11-04T11:25:57.615Z,1568.00
2022-11-04T11:26:57.602Z,1532.00
2022-11-04T11:27:57.607Z,1572.00
2022-11-04T11:28:59.529Z,1564.00
2022-11-04T11:29:57.572Z,1572.00
2022-11-04T11:30:57.564Z,1588.00
2022-11-04T11:31:57.561Z,1592.00
2022-11-04T11:32:57.554Z,1612.00
2022-11-04T11:33:57.555Z,1684.00
2022-11-04T11:34:57.518Z,1656.00
2022-11-04T11:35:57.508Z,1776.00
2022-11-04T11:36:57.491Z,2128.00
2022-11-04T11:37:57.509Z,2576.00
2022-11-04T11:38:57.472Z,2724.00
2022-11-04T11:39:57.471Z,2316.00
2022-11-04T11:41:23.178Z,2208.00
2022-11-04T11:41:57.451Z,2300.00
2022-11-04T11:42:57.440Z,2400.00
2022-11-04T11:43:57.420Z,2272.00
2022-11-04T11:44:57.404Z,1888.00
2022-11-04T11:45:57.395Z,1772.00
2022-11-04T11:46:57.392Z,1972.00
2022-11-04T11:47:57.427Z,2168.00
2022-11-04T11:48:57.358Z,2652.00
2022-11-04T11:49:57.352Z,2300.00
2022-11-04T11:50:57.342Z,2072.00
2022-11-04T11:51:57.331Z,2320.00
2022-11-04T11:52:57.338Z,2896.00
2022-11-04T11:53:57.305Z,2788.00
2022-11-04T11:54:57.304Z,2920.00
2022-11-04T11:55:57.284Z,3312.00
2022-11-04T11:57:14.594Z,3408.00
2022-11-04T12:01:05.341Z,3224.00
2022-11-04T12:01:57.384Z,3028.00
2022-11-04T12:02:57.370Z,3048.00
2022-11-04T12:09:57.135Z,3240.00
2022-11-04T12:10:57.108Z,3740.00
2022-11-04T12:11:57.113Z,3820.00
2022-11-04T12:12:57.101Z,3724.00
2022-11-04T12:13:57.102Z,3748.00
2022-11-04T12:14:57.068Z,3664.00
2022-11-04T12:15:57.063Z,3260.00
2022-11-04T12:16:57.043Z,3160.00
2022-11-04T12:17:57.042Z,3620.00
2022-11-04T12:18:57.036Z,3656.00
2022-11-04T12:19:57.011Z,3556.00
2022-11-04T12:20:57.047Z,3792.00
2022-11-04T12:21:56.999Z,3836.00
2022-11-04T12:22:56.988Z,3500.00
2022-11-04T12:23:56.992Z,3016.00
2022-11-04T12:24:56.951Z,2904.00
2022-11-04T12:25:56.960Z,2888.00
2022-11-04T12:26:56.934Z,3128.00
2022-11-04T12:27:56.931Z,3632.00
2022-11-04T12:28:56.926Z,4176.00
2022-11-04T12:29:56.911Z,4324.00
2022-11-04T12:30:56.890Z,3908.00
2022-11-04T12:31:56.881Z,3380.00
2022-11-04T12:32:56.868Z,3264.00
2022-11-04T12:33:56.878Z,3176.00
2022-11-04T12:34:56.858Z,2800.00
2022-11-04T12:35:56.834Z,2352.00
2022-11-04T12:36:56.816Z,2272.00
2022-11-04T12:37:56.817Z,2284.00
2022-11-04T12:38:56.809Z,2456.00
2022-11-04T12:39:56.794Z,3408.00
2022-11-04T12:41:26.324Z,4164.00
2022-11-04T12:42:19.959Z,4688.00
2022-11-04T12:42:56.764Z,4604.00
2022-11-04T12:43:56.764Z,4444.00
2022-11-04T12:44:56.731Z,4304.00
2022-11-04T12:45:56.718Z,4288.00
2022-11-04T12:46:56.715Z,4176.00
2022-11-04T12:47:56.703Z,4152.00
2022-11-04T12:48:58.438Z,4276.00
2022-11-04T12:49:56.675Z,4188.00
2022-11-04T12:50:56.663Z,3868.00
2022-11-04T12:51:56.668Z,3640.00
2022-11-04T12:52:56.642Z,3972.00
2022-11-04T12:53:56.651Z,4084.00
2022-11-04T12:54:56.615Z,3936.00